Huntsville, Texas
Current Conditions -  °F | °C
As of 3:53 PM on Thursday 27 Nov 2014 (Local Time) from KUTS Reporting Station
Clear Clear  
Wind Chill: 63°   Ceiling: Unl
Heat Index: 63°   Visibility: 10mi
Dew Point: 29°   Wind: 0mph
Humidity: 28%   Direction: NA
Pressure: 30.42"   Gusts: NA
Location:  30.72°N, 95.55°W
Report Text: KUTS 272153Z AUTO 00000KT 10SM CLR 17/M02 A3042 RMK AO2 SLP299 T01721017
Loading
Personal Weather Stations






























Interactive Weather Map New forecast layout! Learn more

10-Day Weather Forecast

Advertisements
Track Severe Weather on mobile